This is the latest recevied weather packets stored in our database for station/object K0KDS. If no packets are shown the sender has not sent any weather packets the latest 10 day(s).
| Time | Temp. | Humidity | Pressure | Rain* | Wind** | Luminosity | Snow |
|---|---|---|---|---|---|---|---|
| 1777596339 | 10.56° C | 46% | 1014.8 hPa | 0 mm | - | - | - |
| 1777595439 | 10.56° C | 45% | 1014.6 hPa | 0 mm | - | - | - |
| 1777594539 | 11.11° C | 43% | 1014.4 hPa | 0 mm | - | - | - |
| 1777593639 | 11.11° C | 44% | 1014.6 hPa | 0 mm | - | - | - |
| 1777592739 | 11.67° C | 40% | 1014.4 hPa | 0 mm | - | - | - |
| 1777591839 | 11.67° C | 38% | 1014.4 hPa | 0 mm | - | - | - |
| 1777590939 | 12.22° C | 39% | 1014.4 hPa | 0 mm | - | - | - |
| 1777590039 | 12.22° C | 38% | 1014.3 hPa | 0 mm | - | - | - |
| 1777589139 | 12.22° C | 38% | 1014.1 hPa | 0 mm | - | - | - |
| 1777588239 | 12.22° C | 38% | 1014.2 hPa | 0 mm | - | - | - |
| 1777587339 | 12.78° C | 38% | 1014.1 hPa | 0 mm | - | - | - |
| 1777586439 | 12.78° C | 37% | 1014.1 hPa | 0 mm | - | - | - |
| 1777585539 | 12.78° C | 37% | 1013.9 hPa | 0 mm | - | - | - |
| 1777584640 | 12.78° C | 40% | 1013.9 hPa | 0 mm | - | - | - |
| 1777583740 | 12.78° C | 43% | 1014 hPa | 0 mm | - | - | - |
| 1777582839 | 12.78° C | 44% | 1014 hPa | 0 mm | - | - | - |
| 1777581939 | 13.33° C | 48% | 1014.1 hPa | 0 mm | - | - | - |
| 1777581039 | 12.78° C | 50% | 1014.4 hPa | 0 mm | - | - | - |
| 1777580139 | 12.22° C | 56% | 1014.7 hPa | 0 mm | - | - | - |
| 1777579239 | 11.67° C | 60% | 1014.8 hPa | 0 mm | - | - | - |
| 1777578339 | 11.11° C | 60% | 1014.9 hPa | 0 mm | - | - | - |
| 1777577439 | 10.56° C | 66% | 1015 hPa | 0 mm | - | - | - |
| 1777576539 | 9.44° C | 66% | 1015.2 hPa | 0 mm | - | - | - |
| 1777575639 | 9.44° C | 65% | 1015.1 hPa | 0 mm | - | - | - |
| 1777574739 | 9.44° C | 67% | 1015.4 hPa | 0 mm | - | - | - |
* Rain latest hour (hover to see other rain measurements)
** Current wind speed in m/s (hover to see current wind gust speed)